sensor_id;sensor_type;location;lat;lon;timestamp;temperature;humidity
6078;DHT22;3067;49.470;10.394;2024-01-10T00:01:07;-5.70;53.50
6078;DHT22;3067;49.470;10.394;2024-01-10T00:03:34;-5.70;53.30
6078;DHT22;3067;49.470;10.394;2024-01-10T00:06:01;-5.80;53.60
6078;DHT22;3067;49.470;10.394;2024-01-10T00:08:28;-5.70;53.70
6078;DHT22;3067;49.470;10.394;2024-01-10T00:10:55;-5.80;53.70
6078;DHT22;3067;49.470;10.394;2024-01-10T00:13:22;-5.70;53.60
6078;DHT22;3067;49.470;10.394;2024-01-10T00:15:50;-5.70;53.70
6078;DHT22;3067;49.470;10.394;2024-01-10T00:18:17;-5.70;53.60
6078;DHT22;3067;49.470;10.394;2024-01-10T00:20:44;-5.60;53.60
6078;DHT22;3067;49.470;10.394;2024-01-10T00:23:11;-5.60;53.70
6078;DHT22;3067;49.470;10.394;2024-01-10T00:25:38;-5.60;53.90
6078;DHT22;3067;49.470;10.394;2024-01-10T00:28:05;-5.60;53.80
6078;DHT22;3067;49.470;10.394;2024-01-10T00:30:32;-5.60;53.70
6078;DHT22;3067;49.470;10.394;2024-01-10T00:33:00;-5.60;53.70
6078;DHT22;3067;49.470;10.394;2024-01-10T00:35:27;-5.60;53.80
6078;DHT22;3067;49.470;10.394;2024-01-10T00:37:54;-5.60;53.60
6078;DHT22;3067;49.470;10.394;2024-01-10T00:40:22;-5.60;53.60
6078;DHT22;3067;49.470;10.394;2024-01-10T00:42:49;-5.60;53.50
6078;DHT22;3067;49.470;10.394;2024-01-10T00:45:16;-5.60;53.20
6078;DHT22;3067;49.470;10.394;2024-01-10T00:47:43;-5.60;53.30
6078;DHT22;3067;49.470;10.394;2024-01-10T00:50:12;-5.60;53.10
6078;DHT22;3067;49.470;10.394;2024-01-10T00:52:39;-5.60;52.90
6078;DHT22;3067;49.470;10.394;2024-01-10T00:55:06;-5.60;52.80
6078;DHT22;3067;49.470;10.394;2024-01-10T00:57:34;-5.60;52.70
6078;DHT22;3067;49.470;10.394;2024-01-10T01:00:01;-5.60;52.80
6078;DHT22;3067;49.470;10.394;2024-01-10T01:02:29;-5.70;53.00
6078;DHT22;3067;49.470;10.394;2024-01-10T01:04:56;-5.70;53.00
6078;DHT22;3067;49.470;10.394;2024-01-10T01:07:25;-5.70;53.00
6078;DHT22;3067;49.470;10.394;2024-01-10T01:09:52;-5.70;53.10
6078;DHT22;3067;49.470;10.394;2024-01-10T01:12:19;-5.70;53.10
6078;DHT22;3067;49.470;10.394;2024-01-10T01:14:46;-5.70;53.20
6078;DHT22;3067;49.470;10.394;2024-01-10T01:17:13;-5.70;53.50
6078;DHT22;3067;49.470;10.394;2024-01-10T01:19:40;-5.70;53.80
6078;DHT22;3067;49.470;10.394;2024-01-10T01:22:08;-5.70;53.90
6078;DHT22;3067;49.470;10.394;2024-01-10T01:24:36;-5.70;54.00
6078;DHT22;3067;49.470;10.394;2024-01-10T01:27:03;-5.80;54.20
6078;DHT22;3067;49.470;10.394;2024-01-10T01:29:30;-5.70;54.20
6078;DHT22;3067;49.470;10.394;2024-01-10T01:31:57;-5.70;54.10
6078;DHT22;3067;49.470;10.394;2024-01-10T01:34:24;-5.70;54.10
6078;DHT22;3067;49.470;10.394;2024-01-10T01:36:51;-5.70;54.20
6078;DHT22;3067;49.470;10.394;2024-01-10T01:39:19;-5.70;54.10
6078;DHT22;3067;49.470;10.394;2024-01-10T01:41:47;-5.70;54.20
6078;DHT22;3067;49.470;10.394;2024-01-10T01:44:14;-5.60;54.40
6078;DHT22;3067;49.470;10.394;2024-01-10T01:46:41;-5.70;54.50
6078;DHT22;3067;49.470;10.394;2024-01-10T01:49:10;-5.60;54.30
6078;DHT22;3067;49.470;10.394;2024-01-10T01:51:37;-5.60;54.60
6078;DHT22;3067;49.470;10.394;2024-01-10T01:54:07;-5.60;54.80
6078;DHT22;3067;49.470;10.394;2024-01-10T01:56:36;-5.60;55.00
6078;DHT22;3067;49.470;10.394;2024-01-10T01:59:05;-5.60;55.20
6078;DHT22;3067;49.470;10.394;2024-01-10T02:01:32;-5.60;55.40
6078;DHT22;3067;49.470;10.394;2024-01-10T02:04:01;-5.60;55.30
6078;DHT22;3067;49.470;10.394;2024-01-10T02:06:28;-5.60;55.50
6078;DHT22;3067;49.470;10.394;2024-01-10T02:08:56;-5.60;55.50
6078;DHT22;3067;49.470;10.394;2024-01-10T02:11:24;-5.60;55.50
6078;DHT22;3067;49.470;10.394;2024-01-10T02:13:51;-5.60;55.60
6078;DHT22;3067;49.470;10.394;2024-01-10T02:16:21;-5.60;55.60
6078;DHT22;3067;49.470;10.394;2024-01-10T02:18:48;-5.50;55.40
6078;DHT22;3067;49.470;10.394;2024-01-10T02:21:16;-5.50;55.50
6078;DHT22;3067;49.470;10.394;2024-01-10T02:23:43;-5.50;55.30
6078;DHT22;3067;49.470;10.394;2024-01-10T02:26:11;-5.60;55.50
6078;DHT22;3067;49.470;10.394;2024-01-10T02:28:38;-5.50;55.70
6078;DHT22;3067;49.470;10.394;2024-01-10T02:31:06;-5.50;55.80
6078;DHT22;3067;49.470;10.394;2024-01-10T02:33:33;-5.60;56.80
6078;DHT22;3067;49.470;10.394;2024-01-10T02:36:00;-5.70;57.40
6078;DHT22;3067;49.470;10.394;2024-01-10T02:38:27;-5.80;57.90
6078;DHT22;3067;49.470;10.394;2024-01-10T02:40:54;-5.90;58.00
6078;DHT22;3067;49.470;10.394;2024-01-10T02:43:23;-6.00;58.20
6078;DHT22;3067;49.470;10.394;2024-01-10T02:45:50;-6.00;58.20
6078;DHT22;3067;49.470;10.394;2024-01-10T02:48:17;-5.90;57.90
6078;DHT22;3067;49.470;10.394;2024-01-10T02:50:44;-5.90;57.70
6078;DHT22;3067;49.470;10.394;2024-01-10T02:53:11;-5.80;57.50
6078;DHT22;3067;49.470;10.394;2024-01-10T02:55:38;-5.80;57.50
6078;DHT22;3067;49.470;10.394;2024-01-10T02:58:05;-5.80;57.40
6078;DHT22;3067;49.470;10.394;2024-01-10T03:00:34;-5.70;57.30
6078;DHT22;3067;49.470;10.394;2024-01-10T03:03:01;-5.70;57.20
6078;DHT22;3067;49.470;10.394;2024-01-10T03:05:28;-5.70;57.00
6078;DHT22;3067;49.470;10.394;2024-01-10T03:07:55;-5.60;57.20
6078;DHT22;3067;49.470;10.394;2024-01-10T03:10:22;-5.60;57.00
6078;DHT22;3067;49.470;10.394;2024-01-10T03:12:49;-5.60;56.80
6078;DHT22;3067;49.470;10.394;2024-01-10T03:15:16;-5.60;56.60
6078;DHT22;3067;49.470;10.394;2024-01-10T03:17:45;-5.60;56.70
6078;DHT22;3067;49.470;10.394;2024-01-10T03:20:12;-5.60;56.60
6078;DHT22;3067;49.470;10.394;2024-01-10T03:22:39;-5.60;56.70
6078;DHT22;3067;49.470;10.394;2024-01-10T03:25:05;-5.60;56.70
6078;DHT22;3067;49.470;10.394;2024-01-10T03:27:33;-5.60;56.70
6078;DHT22;3067;49.470;10.394;2024-01-10T03:30:00;-5.60;56.80
6078;DHT22;3067;49.470;10.394;2024-01-10T03:32:27;-5.60;56.80
6078;DHT22;3067;49.470;10.394;2024-01-10T03:34:55;-5.60;56.80
6078;DHT22;3067;49.470;10.394;2024-01-10T03:37:22;-5.60;56.80
6078;DHT22;3067;49.470;10.394;2024-01-10T03:39:49;-5.60;56.90
6078;DHT22;3067;49.470;10.394;2024-01-10T03:42:17;-5.60;57.00
6078;DHT22;3067;49.470;10.394;2024-01-10T03:44:44;-5.60;57.00
6078;DHT22;3067;49.470;10.394;2024-01-10T03:47:11;-5.60;57.00
6078;DHT22;3067;49.470;10.394;2024-01-10T03:49:38;-5.60;57.00
6078;DHT22;3067;49.470;10.394;2024-01-10T03:52:06;-5.60;56.90
6078;DHT22;3067;49.470;10.394;2024-01-10T03:54:33;-5.60;56.90
6078;DHT22;3067;49.470;10.394;2024-01-10T03:57:00;-5.60;56.90
6078;DHT22;3067;49.470;10.394;2024-01-10T03:59:27;-5.60;56.80
6078;DHT22;3067;49.470;10.394;2024-01-10T04:01:54;-5.60;56.80
6078;DHT22;3067;49.470;10.394;2024-01-10T04:04:21;-5.60;56.70
6078;DHT22;3067;49.470;10.394;2024-01-10T04:06:48;-5.60;56.70
6078;DHT22;3067;49.470;10.394;2024-01-10T04:09:17;-5.60;56.60
6078;DHT22;3067;49.470;10.394;2024-01-10T04:11:44;-5.70;56.70
6078;DHT22;3067;49.470;10.394;2024-01-10T04:14:11;-5.70;56.70
6078;DHT22;3067;49.470;10.394;2024-01-10T04:16:38;-5.70;56.60
6078;DHT22;3067;49.470;10.394;2024-01-10T04:19:05;-5.70;56.60
6078;DHT22;3067;49.470;10.394;2024-01-10T04:21:33;-5.70;56.60
6078;DHT22;3067;49.470;10.394;2024-01-10T04:24:00;-5.70;56.60
6078;DHT22;3067;49.470;10.394;2024-01-10T04:26:28;-5.80;56.80
6078;DHT22;3067;49.470;10.394;2024-01-10T04:28:55;-5.80;56.80
6078;DHT22;3067;49.470;10.394;2024-01-10T04:31:22;-5.80;56.90
6078;DHT22;3067;49.470;10.394;2024-01-10T04:33:49;-5.80;56.90
6078;DHT22;3067;49.470;10.394;2024-01-10T04:36:16;-5.80;56.90
6078;DHT22;3067;49.470;10.394;2024-01-10T04:38:43;-5.80;56.80
6078;DHT22;3067;49.470;10.394;2024-01-10T04:41:10;-5.80;56.60
6078;DHT22;3067;49.470;10.394;2024-01-10T04:43:38;-5.80;56.50
6078;DHT22;3067;49.470;10.394;2024-01-10T04:46:06;-5.80;56.40
6078;DHT22;3067;49.470;10.394;2024-01-10T04:48:35;-5.80;56.50
6078;DHT22;3067;49.470;10.394;2024-01-10T04:51:03;-5.90;56.20
6078;DHT22;3067;49.470;10.394;2024-01-10T04:53:30;-6.00;56.10
6078;DHT22;3067;49.470;10.394;2024-01-10T04:55:57;-6.00;56.10
6078;DHT22;3067;49.470;10.394;2024-01-10T04:58:24;-6.00;55.70
6078;DHT22;3067;49.470;10.394;2024-01-10T05:00:53;-6.00;55.80
6078;DHT22;3067;49.470;10.394;2024-01-10T05:03:20;-6.00;55.90
6078;DHT22;3067;49.470;10.394;2024-01-10T05:05:47;-6.00;55.70
6078;DHT22;3067;49.470;10.394;2024-01-10T05:08:14;-6.00;55.60
6078;DHT22;3067;49.470;10.394;2024-01-10T05:10:41;-6.00;55.70
6078;DHT22;3067;49.470;10.394;2024-01-10T05:13:08;-6.00;55.70
6078;DHT22;3067;49.470;10.394;2024-01-10T05:15:35;-6.00;55.70
6078;DHT22;3067;49.470;10.394;2024-01-10T05:18:04;-5.90;55.90
6078;DHT22;3067;49.470;10.394;2024-01-10T05:20:31;-5.90;55.80
6078;DHT22;3067;49.470;10.394;2024-01-10T05:22:58;-6.00;55.80
6078;DHT22;3067;49.470;10.394;2024-01-10T05:25:27;-6.00;56.10
6078;DHT22;3067;49.470;10.394;2024-01-10T05:27:55;-6.00;56.10
6078;DHT22;3067;49.470;10.394;2024-01-10T05:30:22;-6.00;56.10
6078;DHT22;3067;49.470;10.394;2024-01-10T05:32:49;-6.00;56.10
6078;DHT22;3067;49.470;10.394;2024-01-10T05:35:17;-6.00;56.20
6078;DHT22;3067;49.470;10.394;2024-01-10T05:37:44;-5.90;56.30
6078;DHT22;3067;49.470;10.394;2024-01-10T05:40:12;-6.00;56.10
6078;DHT22;3067;49.470;10.394;2024-01-10T05:42:39;-5.90;56.10
6078;DHT22;3067;49.470;10.394;2024-01-10T05:45:07;-5.90;56.20
6078;DHT22;3067;49.470;10.394;2024-01-10T05:47:34;-5.80;56.10
6078;DHT22;3067;49.470;10.394;2024-01-10T05:50:01;-5.80;56.20
6078;DHT22;3067;49.470;10.394;2024-01-10T05:52:33;-5.80;55.90
6078;DHT22;3067;49.470;10.394;2024-01-10T05:55:00;-5.70;55.80
6078;DHT22;3067;49.470;10.394;2024-01-10T05:57:29;-5.70;55.70
6078;DHT22;3067;49.470;10.394;2024-01-10T05:59:56;-5.70;55.70
6078;DHT22;3067;49.470;10.394;2024-01-10T06:02:23;-5.60;55.50
6078;DHT22;3067;49.470;10.394;2024-01-10T06:04:50;-5.60;55.20
6078;DHT22;3067;49.470;10.394;2024-01-10T06:07:17;-5.60;55.30
6078;DHT22;3067;49.470;10.394;2024-01-10T06:09:47;-5.60;55.20
6078;DHT22;3067;49.470;10.394;2024-01-10T06:12:14;-5.60;55.00
6078;DHT22;3067;49.470;10.394;2024-01-10T06:14:41;-5.60;55.00
6078;DHT22;3067;49.470;10.394;2024-01-10T06:17:09;-5.60;55.10
6078;DHT22;3067;49.470;10.394;2024-01-10T06:19:36;-5.60;55.10
6078;DHT22;3067;49.470;10.394;2024-01-10T06:22:03;-5.60;55.00
6078;DHT22;3067;49.470;10.394;2024-01-10T06:24:30;-5.60;55.10
6078;DHT22;3067;49.470;10.394;2024-01-10T06:26:58;-5.60;55.20
6078;DHT22;3067;49.470;10.394;2024-01-10T06:29:25;-5.60;55.40
6078;DHT22;3067;49.470;10.394;2024-01-10T06:31:53;-5.60;55.30
6078;DHT22;3067;49.470;10.394;2024-01-10T06:34:21;-5.60;55.50
6078;DHT22;3067;49.470;10.394;2024-01-10T06:36:48;-5.60;55.70
6078;DHT22;3067;49.470;10.394;2024-01-10T06:39:16;-5.60;55.60
6078;DHT22;3067;49.470;10.394;2024-01-10T06:41:46;-5.60;55.70
6078;DHT22;3067;49.470;10.394;2024-01-10T06:44:14;-5.60;56.00
6078;DHT22;3067;49.470;10.394;2024-01-10T06:46:43;-5.60;56.00
6078;DHT22;3067;49.470;10.394;2024-01-10T06:49:10;-5.60;56.10
6078;DHT22;3067;49.470;10.394;2024-01-10T06:51:37;-5.60;56.20
6078;DHT22;3067;49.470;10.394;2024-01-10T06:54:04;-5.60;56.20
6078;DHT22;3067;49.470;10.394;2024-01-10T06:56:32;-5.60;56.40
6078;DHT22;3067;49.470;10.394;2024-01-10T06:59:00;-5.60;56.50
6078;DHT22;3067;49.470;10.394;2024-01-10T07:01:28;-5.60;56.70
6078;DHT22;3067;49.470;10.394;2024-01-10T07:03:56;-5.60;56.80
6078;DHT22;3067;49.470;10.394;2024-01-10T07:06:23;-5.60;56.90
6078;DHT22;3067;49.470;10.394;2024-01-10T07:08:50;-5.60;57.10
6078;DHT22;3067;49.470;10.394;2024-01-10T07:11:17;-5.70;57.40
6078;DHT22;3067;49.470;10.394;2024-01-10T07:13:46;-5.70;57.30
6078;DHT22;3067;49.470;10.394;2024-01-10T07:16:13;-5.70;57.60
6078;DHT22;3067;49.470;10.394;2024-01-10T07:18:43;-5.80;57.70
6078;DHT22;3067;49.470;10.394;2024-01-10T07:21:10;-5.80;57.70
6078;DHT22;3067;49.470;10.394;2024-01-10T07:23:38;-5.80;57.80
6078;DHT22;3067;49.470;10.394;2024-01-10T07:26:06;-5.80;57.80
6078;DHT22;3067;49.470;10.394;2024-01-10T07:28:33;-5.80;57.90
6078;DHT22;3067;49.470;10.394;2024-01-10T07:31:00;-5.80;58.00
6078;DHT22;3067;49.470;10.394;2024-01-10T07:33:28;-5.80;58.10
6078;DHT22;3067;49.470;10.394;2024-01-10T07:35:57;-5.80;58.10
6078;DHT22;3067;49.470;10.394;2024-01-10T07:38:24;-5.80;58.20
6078;DHT22;3067;49.470;10.394;2024-01-10T07:40:51;-5.80;58.20
6078;DHT22;3067;49.470;10.394;2024-01-10T07:43:18;-5.80;58.30
6078;DHT22;3067;49.470;10.394;2024-01-10T07:45:45;-5.80;58.20
6078;DHT22;3067;49.470;10.394;2024-01-10T07:48:12;-5.80;58.50
6078;DHT22;3067;49.470;10.394;2024-01-10T07:50:39;-5.80;58.60
6078;DHT22;3067;49.470;10.394;2024-01-10T07:53:08;-5.80;58.70
6078;DHT22;3067;49.470;10.394;2024-01-10T07:55:35;-5.80;58.80
6078;DHT22;3067;49.470;10.394;2024-01-10T07:58:02;-5.80;59.20
6078;DHT22;3067;49.470;10.394;2024-01-10T08:00:31;-5.80;59.30
6078;DHT22;3067;49.470;10.394;2024-01-10T08:02:58;-5.70;59.10
6078;DHT22;3067;49.470;10.394;2024-01-10T08:05:25;-5.70;59.20
6078;DHT22;3067;49.470;10.394;2024-01-10T08:07:52;-5.60;59.20
6078;DHT22;3067;49.470;10.394;2024-01-10T08:10:20;-5.60;59.20
6078;DHT22;3067;49.470;10.394;2024-01-10T08:12:47;-5.50;59.20
6078;DHT22;3067;49.470;10.394;2024-01-10T08:15:15;-5.40;59.10
6078;DHT22;3067;49.470;10.394;2024-01-10T08:17:42;-5.30;58.80
6078;DHT22;3067;49.470;10.394;2024-01-10T08:20:09;-5.20;58.60
6078;DHT22;3067;49.470;10.394;2024-01-10T08:22:37;-5.20;58.60
6078;DHT22;3067;49.470;10.394;2024-01-10T08:25:04;-5.10;58.30
6078;DHT22;3067;49.470;10.394;2024-01-10T08:27:33;-5.00;58.00
6078;DHT22;3067;49.470;10.394;2024-01-10T08:30:01;-5.00;57.50
6078;DHT22;3067;49.470;10.394;2024-01-10T08:32:30;-5.00;57.40
6078;DHT22;3067;49.470;10.394;2024-01-10T08:34:57;-4.90;56.70
6078;DHT22;3067;49.470;10.394;2024-01-10T08:37:24;-4.90;56.80
6078;DHT22;3067;49.470;10.394;2024-01-10T08:39:51;-4.90;56.80
6078;DHT22;3067;49.470;10.394;2024-01-10T08:42:18;-4.80;56.80
6078;DHT22;3067;49.470;10.394;2024-01-10T08:44:47;-4.70;56.80
6078;DHT22;3067;49.470;10.394;2024-01-10T08:47:15;-4.60;56.40
6078;DHT22;3067;49.470;10.394;2024-01-10T08:49:42;-4.60;55.80
6078;DHT22;3067;49.470;10.394;2024-01-10T08:52:09;-4.60;56.00
6078;DHT22;3067;49.470;10.394;2024-01-10T08:54:37;-4.60;56.30
6078;DHT22;3067;49.470;10.394;2024-01-10T08:57:04;-4.70;56.10
6078;DHT22;3067;49.470;10.394;2024-01-10T08:59:31;-4.70;56.20
6078;DHT22;3067;49.470;10.394;2024-01-10T09:02:00;-4.60;56.50
6078;DHT22;3067;49.470;10.394;2024-01-10T09:04:27;-4.70;56.50
6078;DHT22;3067;49.470;10.394;2024-01-10T09:06:54;-4.70;56.40
6078;DHT22;3067;49.470;10.394;2024-01-10T09:09:21;-4.80;56.40
6078;DHT22;3067;49.470;10.394;2024-01-10T09:11:49;-4.80;56.70
6078;DHT22;3067;49.470;10.394;2024-01-10T09:14:16;-4.80;56.60
6078;DHT22;3067;49.470;10.394;2024-01-10T09:16:43;-4.80;56.40
6078;DHT22;3067;49.470;10.394;2024-01-10T09:19:12;-4.80;56.60
6078;DHT22;3067;49.470;10.394;2024-01-10T09:21:39;-4.70;56.80
6078;DHT22;3067;49.470;10.394;2024-01-10T09:24:06;-4.60;56.80
6078;DHT22;3067;49.470;10.394;2024-01-10T09:26:36;-4.60;56.90
6078;DHT22;3067;49.470;10.394;2024-01-10T09:29:03;-4.60;57.00
6078;DHT22;3067;49.470;10.394;2024-01-10T09:31:31;-4.50;57.10
6078;DHT22;3067;49.470;10.394;2024-01-10T09:33:58;-4.40;57.20
6078;DHT22;3067;49.470;10.394;2024-01-10T09:36:26;-4.40;57.40
6078;DHT22;3067;49.470;10.394;2024-01-10T09:38:54;-4.30;57.30
6078;DHT22;3067;49.470;10.394;2024-01-10T09:41:21;-4.20;57.00
6078;DHT22;3067;49.470;10.394;2024-01-10T09:43:49;-4.10;56.90
6078;DHT22;3067;49.470;10.394;2024-01-10T09:46:17;-4.10;56.80
6078;DHT22;3067;49.470;10.394;2024-01-10T09:48:45;-4.00;56.60
6078;DHT22;3067;49.470;10.394;2024-01-10T09:51:12;-3.90;56.50
6078;DHT22;3067;49.470;10.394;2024-01-10T09:53:44;-3.80;56.30
6078;DHT22;3067;49.470;10.394;2024-01-10T09:56:16;-3.60;56.40
6078;DHT22;3067;49.470;10.394;2024-01-10T09:58:45;-3.50;55.50
6078;DHT22;3067;49.470;10.394;2024-01-10T10:01:13;-3.40;55.10
6078;DHT22;3067;49.470;10.394;2024-01-10T10:03:41;-3.30;54.60
6078;DHT22;3067;49.470;10.394;2024-01-10T10:06:13;-3.20;53.80
6078;DHT22;3067;49.470;10.394;2024-01-10T10:08:41;-3.10;54.50
6078;DHT22;3067;49.470;10.394;2024-01-10T10:11:12;-3.00;54.00
6078;DHT22;3067;49.470;10.394;2024-01-10T10:13:40;-2.80;53.50
6078;DHT22;3067;49.470;10.394;2024-01-10T10:16:08;-2.80;53.10
6078;DHT22;3067;49.470;10.394;2024-01-10T10:18:39;-2.80;52.90
6078;DHT22;3067;49.470;10.394;2024-01-10T10:21:09;-2.70;53.10
6078;DHT22;3067;49.470;10.394;2024-01-10T10:23:37;-2.70;52.80
6078;DHT22;3067;49.470;10.394;2024-01-10T10:26:13;-2.60;52.40
6078;DHT22;3067;49.470;10.394;2024-01-10T10:28:45;-2.60;52.10
6078;DHT22;3067;49.470;10.394;2024-01-10T10:31:12;-2.60;52.50
6078;DHT22;3067;49.470;10.394;2024-01-10T10:33:40;-2.50;52.80
6078;DHT22;3067;49.470;10.394;2024-01-10T10:36:07;-2.50;52.40
6078;DHT22;3067;49.470;10.394;2024-01-10T10:38:35;-2.40;52.30
6078;DHT22;3067;49.470;10.394;2024-01-10T10:41:05;-2.40;52.00
6078;DHT22;3067;49.470;10.394;2024-01-10T10:43:38;-2.40;52.60
6078;DHT22;3067;49.470;10.394;2024-01-10T10:46:07;-2.30;52.80
6078;DHT22;3067;49.470;10.394;2024-01-10T10:48:35;-2.30;52.50
6078;DHT22;3067;49.470;10.394;2024-01-10T10:51:05;-2.30;52.70
6078;DHT22;3067;49.470;10.394;2024-01-10T10:53:34;-2.30;52.80
6078;DHT22;3067;49.470;10.394;2024-01-10T10:56:03;-2.20;52.90
6078;DHT22;3067;49.470;10.394;2024-01-10T10:58:33;-2.20;52.50
6078;DHT22;3067;49.470;10.394;2024-01-10T11:01:04;-2.10;52.50
6078;DHT22;3067;49.470;10.394;2024-01-10T11:03:35;-2.10;52.20
6078;DHT22;3067;49.470;10.394;2024-01-10T11:06:03;-2.10;52.20
6078;DHT22;3067;49.470;10.394;2024-01-10T11:08:33;-2.10;52.10
6078;DHT22;3067;49.470;10.394;2024-01-10T11:11:04;-1.90;52.20
6078;DHT22;3067;49.470;10.394;2024-01-10T11:13:49;-1.80;52.20
6078;DHT22;3067;49.470;10.394;2024-01-10T11:16:42;-1.70;52.30
6078;DHT22;3067;49.470;10.394;2024-01-10T11:19:38;-1.60;51.70
6078;DHT22;3067;49.470;10.394;2024-01-10T11:22:18;-1.60;51.00
6078;DHT22;3067;49.470;10.394;2024-01-10T11:24:50;-1.50;51.70
6078;DHT22;3067;49.470;10.394;2024-01-10T11:27:18;-1.50;51.50
6078;DHT22;3067;49.470;10.394;2024-01-10T11:29:46;-1.50;51.60
6078;DHT22;3067;49.470;10.394;2024-01-10T11:32:16;-1.50;51.00
6078;DHT22;3067;49.470;10.394;2024-01-10T11:34:57;-1.40;51.70
6078;DHT22;3067;49.470;10.394;2024-01-10T11:37:28;-1.50;51.50
6078;DHT22;3067;49.470;10.394;2024-01-10T11:39:55;-1.40;51.80
6078;DHT22;3067;49.470;10.394;2024-01-10T11:42:23;-1.30;51.90
6078;DHT22;3067;49.470;10.394;2024-01-10T11:44:51;-1.30;51.20
6078;DHT22;3067;49.470;10.394;2024-01-10T11:47:21;-1.30;51.40
6078;DHT22;3067;49.470;10.394;2024-01-10T11:49:55;-1.30;51.30
6078;DHT22;3067;49.470;10.394;2024-01-10T11:52:23;-1.20;51.40
6078;DHT22;3067;49.470;10.394;2024-01-10T11:54:50;-1.10;50.90
6078;DHT22;3067;49.470;10.394;2024-01-10T11:57:21;-1.10;50.90
6078;DHT22;3067;49.470;10.394;2024-01-10T11:59:51;-1.00;51.00
6078;DHT22;3067;49.470;10.394;2024-01-10T12:02:21;-0.90;50.20
6078;DHT22;3067;49.470;10.394;2024-01-10T12:04:49;-0.90;50.20
6078;DHT22;3067;49.470;10.394;2024-01-10T12:07:17;-0.90;50.20
6078;DHT22;3067;49.470;10.394;2024-01-10T12:09:44;-0.90;50.30
6078;DHT22;3067;49.470;10.394;2024-01-10T12:12:12;-0.90;50.30
6078;DHT22;3067;49.470;10.394;2024-01-10T12:14:40;-0.90;50.60
6078;DHT22;3067;49.470;10.394;2024-01-10T12:17:07;-0.70;50.80
6078;DHT22;3067;49.470;10.394;2024-01-10T12:19:35;-0.60;50.80
6078;DHT22;3067;49.470;10.394;2024-01-10T12:22:03;-0.50;50.50
6078;DHT22;3067;49.470;10.394;2024-01-10T12:24:31;-0.40;49.80
6078;DHT22;3067;49.470;10.394;2024-01-10T12:26:59;-0.30;49.40
6078;DHT22;3067;49.470;10.394;2024-01-10T12:29:26;-0.30;48.90
6078;DHT22;3067;49.470;10.394;2024-01-10T12:31:53;-0.30;49.40
6078;DHT22;3067;49.470;10.394;2024-01-10T12:34:20;-0.30;49.40
6078;DHT22;3067;49.470;10.394;2024-01-10T12:36:54;-0.20;49.40
6078;DHT22;3067;49.470;10.394;2024-01-10T12:39:22;-0.10;49.00
6078;DHT22;3067;49.470;10.394;2024-01-10T12:41:51;-0.10;49.10
6078;DHT22;3067;49.470;10.394;2024-01-10T12:44:18;0.00;49.00
6078;DHT22;3067;49.470;10.394;2024-01-10T12:46:50;0.00;49.10
6078;DHT22;3067;49.470;10.394;2024-01-10T12:49:18;0.10;48.60
6078;DHT22;3067;49.470;10.394;2024-01-10T12:51:46;0.20;48.40
6078;DHT22;3067;49.470;10.394;2024-01-10T12:54:15;0.20;48.20
6078;DHT22;3067;49.470;10.394;2024-01-10T12:56:43;0.20;48.20
6078;DHT22;3067;49.470;10.394;2024-01-10T12:59:11;0.20;48.20
6078;DHT22;3067;49.470;10.394;2024-01-10T13:01:38;0.20;48.40
6078;DHT22;3067;49.470;10.394;2024-01-10T13:04:05;0.40;48.70
6078;DHT22;3067;49.470;10.394;2024-01-10T13:06:32;0.50;48.40
6078;DHT22;3067;49.470;10.394;2024-01-10T13:08:59;0.90;48.40
6078;DHT22;3067;49.470;10.394;2024-01-10T13:11:28;1.50;48.00
6078;DHT22;3067;49.470;10.394;2024-01-10T13:13:55;2.20;46.30
6078;DHT22;3067;49.470;10.394;2024-01-10T13:16:22;3.10;44.90
6078;DHT22;3067;49.470;10.394;2024-01-10T13:18:49;3.80;42.70
6078;DHT22;3067;49.470;10.394;2024-01-10T13:21:19;4.50;40.90
6078;DHT22;3067;49.470;10.394;2024-01-10T13:23:46;5.00;38.80
6078;DHT22;3067;49.470;10.394;2024-01-10T13:26:13;5.50;38.40
6078;DHT22;3067;49.470;10.394;2024-01-10T13:28:42;6.10;37.30
6078;DHT22;3067;49.470;10.394;2024-01-10T13:31:09;6.50;35.50
6078;DHT22;3067;49.470;10.394;2024-01-10T13:33:37;6.80;34.40
6078;DHT22;3067;49.470;10.394;2024-01-10T13:36:04;7.00;34.30
6078;DHT22;3067;49.470;10.394;2024-01-10T13:38:31;7.20;33.90
6078;DHT22;3067;49.470;10.394;2024-01-10T13:40:59;7.50;33.70
6078;DHT22;3067;49.470;10.394;2024-01-10T13:43:27;7.70;32.90
6078;DHT22;3067;49.470;10.394;2024-01-10T13:45:55;7.80;32.10
6078;DHT22;3067;49.470;10.394;2024-01-10T13:48:22;7.60;31.40
6078;DHT22;3067;49.470;10.394;2024-01-10T13:50:49;7.00;31.80
6078;DHT22;3067;49.470;10.394;2024-01-10T13:53:16;6.10;32.70
6078;DHT22;3067;49.470;10.394;2024-01-10T13:55:44;5.30;34.00
6078;DHT22;3067;49.470;10.394;2024-01-10T13:58:12;4.50;35.40
6078;DHT22;3067;49.470;10.394;2024-01-10T14:00:39;3.90;37.00
6078;DHT22;3067;49.470;10.394;2024-01-10T14:03:07;3.20;38.30
6078;DHT22;3067;49.470;10.394;2024-01-10T14:05:34;2.80;39.60
6078;DHT22;3067;49.470;10.394;2024-01-10T14:08:01;2.30;40.50
6078;DHT22;3067;49.470;10.394;2024-01-10T14:10:28;2.00;41.50
6078;DHT22;3067;49.470;10.394;2024-01-10T14:12:55;1.70;42.30
6078;DHT22;3067;49.470;10.394;2024-01-10T14:15:22;1.40;42.80
6078;DHT22;3067;49.470;10.394;2024-01-10T14:17:49;1.30;43.50
6078;DHT22;3067;49.470;10.394;2024-01-10T14:20:18;1.20;43.80
6078;DHT22;3067;49.470;10.394;2024-01-10T14:22:47;1.10;44.40
6078;DHT22;3067;49.470;10.394;2024-01-10T14:25:15;1.00;45.00
6078;DHT22;3067;49.470;10.394;2024-01-10T14:27:42;0.80;45.30
6078;DHT22;3067;49.470;10.394;2024-01-10T14:30:10;0.70;45.80
6078;DHT22;3067;49.470;10.394;2024-01-10T14:32:37;0.60;46.10
6078;DHT22;3067;49.470;10.394;2024-01-10T14:35:04;0.50;46.40
6078;DHT22;3067;49.470;10.394;2024-01-10T14:37:33;0.40;46.70
6078;DHT22;3067;49.470;10.394;2024-01-10T14:40:03;0.40;46.90
6078;DHT22;3067;49.470;10.394;2024-01-10T14:42:30;0.30;47.30
6078;DHT22;3067;49.470;10.394;2024-01-10T14:44:58;0.30;47.60
6078;DHT22;3067;49.470;10.394;2024-01-10T14:47:26;0.30;47.80
6078;DHT22;3067;49.470;10.394;2024-01-10T14:49:53;0.20;48.10
6078;DHT22;3067;49.470;10.394;2024-01-10T14:52:21;0.20;48.40
6078;DHT22;3067;49.470;10.394;2024-01-10T14:54:49;0.20;48.30
6078;DHT22;3067;49.470;10.394;2024-01-10T14:57:16;0.20;48.10
6078;DHT22;3067;49.470;10.394;2024-01-10T14:59:43;0.20;48.00
6078;DHT22;3067;49.470;10.394;2024-01-10T15:02:10;0.20;48.10
6078;DHT22;3067;49.470;10.394;2024-01-10T15:04:38;0.10;48.50
6078;DHT22;3067;49.470;10.394;2024-01-10T15:07:05;0.10;48.60
6078;DHT22;3067;49.470;10.394;2024-01-10T15:09:32;0.10;48.80
6078;DHT22;3067;49.470;10.394;2024-01-10T15:12:04;0.10;48.90
6078;DHT22;3067;49.470;10.394;2024-01-10T15:14:33;0.10;48.80
6078;DHT22;3067;49.470;10.394;2024-01-10T15:17:01;0.10;48.90
6078;DHT22;3067;49.470;10.394;2024-01-10T15:19:30;0.10;48.90
6078;DHT22;3067;49.470;10.394;2024-01-10T15:21:57;0.00;48.80
6078;DHT22;3067;49.470;10.394;2024-01-10T15:24:25;0.00;49.00
6078;DHT22;3067;49.470;10.394;2024-01-10T15:26:52;0.00;49.40
6078;DHT22;3067;49.470;10.394;2024-01-10T15:29:23;0.00;49.70
6078;DHT22;3067;49.470;10.394;2024-01-10T15:31:50;0.00;49.80
6078;DHT22;3067;49.470;10.394;2024-01-10T15:34:17;0.00;49.90
6078;DHT22;3067;49.470;10.394;2024-01-10T15:36:44;0.00;50.00
6078;DHT22;3067;49.470;10.394;2024-01-10T15:39:12;-0.10;50.00
6078;DHT22;3067;49.470;10.394;2024-01-10T15:41:39;-0.10;50.00
6078;DHT22;3067;49.470;10.394;2024-01-10T15:44:06;-0.10;50.10
6078;DHT22;3067;49.470;10.394;2024-01-10T15:46:36;-0.10;50.10
6078;DHT22;3067;49.470;10.394;2024-01-10T15:49:03;-0.10;50.30
6078;DHT22;3067;49.470;10.394;2024-01-10T15:51:30;-0.20;50.50
6078;DHT22;3067;49.470;10.394;2024-01-10T15:53:57;-0.20;50.70